Time;durP1;ratioP1;P1;durP2;ratioP2;P2;SDS_P1;SDS_P2;PMS_P1;PMS_P2;Temp;Humidity;BMP_temperature;BMP_pressure;BME280_temperature;BME280_humidity;BME280_pressure;Samples;Min_cycle;Max_cycle;Signal;HPM_P1;HPM_P2
2023/05/13 00:00:46;;;;;;;5.88;4.18;;;11.60;99.90;;;;;;4973771;28;20043;-85
2023/05/13 00:03:12;;;;;;;6.72;4.55;;;11.60;99.90;;;;;;4970066;28;20453;-85
2023/05/13 00:05:39;;;;;;;5.45;4.43;;;11.60;99.90;;;;;;4969833;28;20494;-85
2023/05/13 00:08:06;;;;;;;8.57;4.57;;;11.60;99.90;;;;;;4971693;28;20047;-85
2023/05/13 00:10:32;;;;;;;6.47;4.00;;;11.50;99.90;;;;;;4969421;28;20035;-84
2023/05/13 00:12:58;;;;;;;9.32;4.20;;;11.50;99.90;;;;;;4955318;28;20174;-85
2023/05/13 00:15:24;;;;;;;7.88;4.68;;;11.50;99.90;;;;;;4973719;28;20078;-85
2023/05/13 00:17:50;;;;;;;5.78;4.20;;;11.50;99.90;;;;;;4967497;28;20050;-85
2023/05/13 00:20:15;;;;;;;6.95;4.88;;;11.50;99.90;;;;;;4943973;28;20050;-85
2023/05/13 00:22:41;;;;;;;5.35;4.90;;;11.40;99.90;;;;;;4973812;28;20038;-85
2023/05/13 00:25:07;;;;;;;7.30;4.55;;;11.40;99.90;;;;;;4973259;28;20104;-85
2023/05/13 00:27:33;;;;;;;7.05;4.63;;;11.40;99.90;;;;;;4968758;28;20083;-85
2023/05/13 00:30:01;;;;;;;6.65;4.60;;;11.40;99.90;;;;;;4971269;28;20109;-85
2023/05/13 00:32:27;;;;;;;8.35;4.60;;;11.40;99.90;;;;;;4969064;28;20043;-84
2023/05/13 00:34:52;;;;;;;6.72;5.13;;;11.40;99.90;;;;;;4973969;28;20565;-85
2023/05/13 00:37:18;;;;;;;5.15;4.65;;;11.30;99.90;;;;;;4967382;28;20739;-85
2023/05/13 00:39:44;;;;;;;8.13;4.95;;;11.30;99.90;;;;;;4986370;28;20097;-84
2023/05/13 00:42:12;;;;;;;6.85;4.43;;;11.30;99.90;;;;;;4969024;28;20046;-84
2023/05/13 00:44:38;;;;;;;10.82;5.30;;;11.20;99.90;;;;;;4983693;28;20043;-85
2023/05/13 00:47:05;;;;;;;7.57;4.63;;;11.20;99.90;;;;;;4970382;28;20449;-85
2023/05/13 00:49:32;;;;;;;9.85;5.82;;;11.20;99.90;;;;;;4972684;28;20043;-85
2023/05/13 00:51:58;;;;;;;9.02;5.10;;;11.20;99.90;;;;;;4971769;28;20043;-84
2023/05/13 00:54:24;;;;;;;10.95;5.03;;;11.20;99.90;;;;;;4964647;28;20122;-85
2023/05/13 00:56:53;;;;;;;5.55;4.85;;;11.20;99.90;;;;;;4968965;28;20066;-84
2023/05/13 00:59:19;;;;;;;5.55;5.00;;;11.10;99.90;;;;;;4970173;28;20039;-85
2023/05/13 01:02:07;;;;;;;8.38;5.70;;;11.10;99.90;;;;;;4972814;28;20035;-85
2023/05/13 01:04:53;;;;;;;7.10;5.38;;;11.10;99.90;;;;;;4964773;28;20465;-85
2023/05/13 01:07:35;;;;;;;7.00;5.70;;;11.10;99.90;;;;;;4971727;28;20050;-84
2023/05/13 01:10:22;;;;;;;8.02;5.65;;;11.00;99.90;;;;;;4985431;28;21082;-84
2023/05/13 01:12:52;;;;;;;6.95;5.72;;;11.00;99.90;;;;;;4989547;28;20039;-85
2023/05/13 01:15:22;;;;;;;9.00;5.65;;;11.00;99.90;;;;;;4984986;28;20126;-85
2023/05/13 01:17:56;;;;;;;9.20;5.65;;;10.90;99.90;;;;;;4972215;28;20051;-85
2023/05/13 01:20:23;;;;;;;7.88;5.55;;;11.00;99.90;;;;;;4987054;28;20104;-85
2023/05/13 01:22:48;;;;;;;6.43;5.38;;;10.90;99.90;;;;;;4969099;28;20050;-85
2023/05/13 01:25:14;;;;;;;7.43;5.25;;;10.90;99.90;;;;;;4970362;28;20035;-85
2023/05/13 01:27:40;;;;;;;8.48;5.95;;;10.90;99.90;;;;;;4970185;28;20039;-85
2023/05/13 01:30:07;;;;;;;12.50;5.95;;;10.80;99.90;;;;;;4968463;28;20522;-85
2023/05/13 01:32:36;;;;;;;6.00;5.40;;;10.90;99.90;;;;;;4968547;28;20039;-85
2023/05/13 01:35:02;;;;;;;8.27;5.95;;;10.80;99.90;;;;;;4966074;28;20058;-85
2023/05/13 01:37:29;;;;;;;5.78;5.28;;;10.80;99.90;;;;;;4970720;28;20139;-85
2023/05/13 01:39:55;;;;;;;6.60;5.53;;;10.80;99.90;;;;;;4986708;28;20086;-85
2023/05/13 01:42:22;;;;;;;6.30;5.65;;;10.80;99.90;;;;;;4970659;28;20034;-85
2023/05/13 01:44:50;;;;;;;8.90;5.82;;;10.80;99.90;;;;;;4966002;28;20125;-85
2023/05/13 01:47:15;;;;;;;7.68;6.13;;;10.80;99.90;;;;;;4971429;28;20118;-84
2023/05/13 01:49:41;;;;;;;10.43;5.97;;;10.80;99.90;;;;;;4964421;28;20130;-85
2023/05/13 01:52:07;;;;;;;8.90;5.85;;;10.70;99.90;;;;;;4983087;28;20103;-85
2023/05/13 01:54:32;;;;;;;8.65;6.90;;;10.70;99.90;;;;;;4967590;28;20047;-84
2023/05/13 01:56:58;;;;;;;8.85;6.75;;;10.70;99.90;;;;;;4965407;28;20045;-84
2023/05/13 01:59:23;;;;;;;8.88;7.00;;;10.70;99.90;;;;;;4983389;28;20042;-84
2023/05/13 02:01:49;;;;;;;8.07;7.07;;;10.60;99.90;;;;;;4970151;28;20110;-84
2023/05/13 02:04:14;;;;;;;7.38;6.03;;;10.70;99.90;;;;;;4967369;28;20047;-84
2023/05/13 02:06:40;;;;;;;8.75;7.05;;;10.80;99.90;;;;;;4967767;28;20047;-84
2023/05/13 02:09:06;;;;;;;7.30;6.32;;;10.70;99.90;;;;;;4983132;28;20093;-84
2023/05/13 02:11:32;;;;;;;9.10;7.13;;;10.60;99.90;;;;;;4981433;28;20043;-84
2023/05/13 02:13:57;;;;;;;9.68;7.00;;;10.60;99.90;;;;;;4970915;28;20051;-85
2023/05/13 02:16:23;;;;;;;10.30;6.75;;;10.60;99.90;;;;;;4972130;28;20049;-84
2023/05/13 02:18:48;;;;;;;12.10;7.13;;;10.60;99.90;;;;;;4985008;28;20585;-84
2023/05/13 02:21:14;;;;;;;7.45;6.65;;;10.60;99.90;;;;;;4969920;28;20105;-84
2023/05/13 02:23:39;;;;;;;6.90;6.20;;;10.60;99.90;;;;;;4971982;28;20047;-84
2023/05/13 02:26:05;;;;;;;9.73;6.55;;;10.60;99.90;;;;;;4974511;28;20035;-84
2023/05/13 02:28:30;;;;;;;9.05;7.43;;;10.60;99.90;;;;;;4954799;28;20039;-85
2023/05/13 02:30:56;;;;;;;7.95;7.00;;;10.50;99.90;;;;;;4966998;28;20058;-85
2023/05/13 02:33:22;;;;;;;9.13;7.57;;;10.50;99.90;;;;;;4970297;28;20043;-84
2023/05/13 02:35:47;;;;;;;7.50;6.68;;;10.50;99.90;;;;;;4969220;28;20040;-85
2023/05/13 02:38:13;;;;;;;9.35;7.65;;;10.40;99.90;;;;;;4982015;28;20039;-85
2023/05/13 02:40:38;;;;;;;9.50;7.75;;;10.30;99.90;;;;;;4968331;28;20050;-85
2023/05/13 02:43:04;;;;;;;12.43;7.72;;;10.40;99.90;;;;;;4980040;28;20043;-85
2023/05/13 02:45:30;;;;;;;9.95;7.68;;;10.30;99.90;;;;;;4962487;28;20493;-85
2023/05/13 02:47:56;;;;;;;11.82;6.82;;;10.30;99.90;;;;;;4985981;28;20043;-85
2023/05/13 02:50:22;;;;;;;12.35;7.97;;;10.30;99.90;;;;;;4963204;28;20035;-85
2023/05/13 02:52:47;;;;;;;8.57;7.47;;;10.20;99.90;;;;;;4968196;28;20050;-84
2023/05/13 02:55:13;;;;;;;13.35;7.70;;;10.20;99.90;;;;;;4966319;28;20043;-84
2023/05/13 02:57:38;;;;;;;9.07;7.93;;;10.20;99.90;;;;;;4969258;28;20046;-84
2023/05/13 03:00:05;;;;;;;10.27;8.52;;;10.20;99.90;;;;;;4968894;28;20131;-85
2023/05/13 03:02:31;;;;;;;11.45;7.78;;;10.20;99.90;;;;;;4972897;28;20051;-84
2023/05/13 03:04:57;;;;;;;14.07;8.60;;;10.10;99.90;;;;;;4982764;28;20036;-84
2023/05/13 03:07:23;;;;;;;9.98;8.05;;;10.10;99.90;;;;;;4970420;28;20097;-85
2023/05/13 03:09:49;;;;;;;11.18;7.82;;;10.20;99.90;;;;;;4970292;28;20067;-85
2023/05/13 03:12:15;;;;;;;11.18;8.20;;;10.20;99.90;;;;;;4969714;28;20043;-85
2023/05/13 03:14:41;;;;;;;10.50;8.10;;;10.20;99.90;;;;;;4970196;28;20538;-84
2023/05/13 03:17:07;;;;;;;14.02;8.65;;;10.00;99.90;;;;;;4971625;28;20125;-86
2023/05/13 03:19:34;;;;;;;9.00;8.13;;;10.10;99.90;;;;;;4981694;28;20534;-84
2023/05/13 03:22:00;;;;;;;11.32;8.63;;;10.00;99.90;;;;;;4972008;28;20093;-84
2023/05/13 03:24:26;;;;;;;10.65;9.20;;;10.00;99.90;;;;;;4969783;28;20034;-85
2023/05/13 03:26:51;;;;;;;11.68;8.00;;;10.00;99.90;;;;;;4971770;28;20043;-85
2023/05/13 03:29:17;;;;;;;11.38;9.52;;;10.00;99.90;;;;;;4968983;28;20409;-84
2023/05/13 03:31:43;;;;;;;11.30;9.05;;;10.00;99.90;;;;;;4965020;28;20054;-85
2023/05/13 03:34:08;;;;;;;9.82;8.85;;;10.00;99.90;;;;;;4970925;28;20043;-85
2023/05/13 03:36:34;;;;;;;9.82;8.15;;;10.00;99.90;;;;;;4984862;28;20055;-85
2023/05/13 03:38:59;;;;;;;15.93;9.15;;;10.00;99.90;;;;;;4985930;28;20047;-85
2023/05/13 03:41:26;;;;;;;13.00;10.15;;;10.00;99.90;;;;;;4985167;28;20058;-85
2023/05/13 03:43:53;;;;;;;11.45;9.57;;;10.10;99.90;;;;;;4971411;28;20039;-85
2023/05/13 03:46:18;;;;;;;11.65;9.10;;;10.10;99.90;;;;;;4949454;28;20050;-85
2023/05/13 03:48:44;;;;;;;11.38;9.77;;;10.00;99.90;;;;;;4965516;28;20058;-84
2023/05/13 03:51:10;;;;;;;11.38;10.00;;;10.00;99.90;;;;;;4965755;28;20421;-84
2023/05/13 03:53:35;;;;;;;11.10;9.52;;;10.00;99.90;;;;;;4983549;28;20466;-84
2023/05/13 03:56:01;;;;;;;13.38;9.73;;;10.00;99.90;;;;;;4984197;28;20137;-84
2023/05/13 03:58:26;;;;;;;12.35;9.48;;;10.10;99.90;;;;;;4967843;28;20042;-85
2023/05/13 04:00:52;;;;;;;15.52;11.13;;;10.00;99.90;;;;;;4969903;28;20070;-84
2023/05/13 04:03:18;;;;;;;11.27;9.90;;;10.00;99.90;;;;;;4972334;28;20481;-84
2023/05/13 04:05:47;;;;;;;15.23;10.15;;;10.10;99.90;;;;;;4964096;28;20079;-84
2023/05/13 04:08:13;;;;;;;12.30;9.55;;;10.10;99.90;;;;;;4966933;28;20078;-84
2023/05/13 04:10:38;;;;;;;13.68;10.25;;;10.20;99.90;;;;;;4986189;28;20051;-84
2023/05/13 04:13:04;;;;;;;14.13;9.75;;;10.10;99.90;;;;;;4966995;28;20038;-85
2023/05/13 04:15:32;;;;;;;11.32;10.10;;;10.50;99.90;;;;;;4968042;28;20457;-84
2023/05/13 04:17:59;;;;;;;13.02;10.02;;;10.30;99.90;;;;;;4967053;28;20102;-84
2023/05/13 04:20:24;;;;;;;11.20;9.57;;;10.40;99.90;;;;;;4982054;28;20061;-85
2023/05/13 04:22:51;;;;;;;11.48;10.27;;;10.40;99.90;;;;;;4966978;28;20046;-84
2023/05/13 04:25:16;;;;;;;15.77;9.55;;;10.50;99.90;;;;;;4972935;28;20468;-84
2023/05/13 04:27:42;;;;;;;14.32;9.18;;;10.60;99.90;;;;;;4970746;28;20057;-84
2023/05/13 04:30:08;;;;;;;8.73;7.90;;;10.80;99.90;;;;;;4971454;28;20799;-84
2023/05/13 04:32:35;;;;;;;12.27;9.63;;;11.10;99.90;;;;;;4971053;28;20053;-84
2023/05/13 04:35:00;;;;;;;14.68;8.52;;;11.50;99.90;;;;;;4968920;28;20051;-85
2023/05/13 04:37:26;;;;;;;13.65;9.18;;;11.80;99.90;;;;;;4969532;28;20515;-85
2023/05/13 04:39:51;;;;;;;9.30;7.35;;;12.20;99.90;;;;;;4986306;28;20113;-84
2023/05/13 04:42:17;;;;;;;8.75;7.78;;;12.60;99.90;;;;;;4967426;28;20481;-85
2023/05/13 04:44:43;;;;;;;11.65;7.78;;;12.90;99.90;;;;;;4966794;28;20432;-85
2023/05/13 04:47:09;;;;;;;9.15;7.85;;;13.20;99.90;;;;;;4953633;28;20126;-84
2023/05/13 04:49:34;;;;;;;8.43;7.47;;;13.40;99.90;;;;;;4966901;28;20046;-85
2023/05/13 04:52:01;;;;;;;9.48;8.00;;;13.70;99.90;;;;;;4966505;28;20035;-85
2023/05/13 04:54:27;;;;;;;9.43;7.13;;;14.00;99.90;;;;;;4967664;28;20039;-85
2023/05/13 04:56:53;;;;;;;11.23;7.72;;;14.10;99.90;;;;;;4969234;28;20060;-85
2023/05/13 04:59:18;;;;;;;9.02;7.25;;;14.10;99.90;;;;;;4971400;28;20540;-85
2023/05/13 05:01:44;;;;;;;8.88;6.63;;;14.10;99.90;;;;;;4965675;28;20382;-85
2023/05/13 05:04:10;;;;;;;14.63;7.45;;;14.00;99.90;;;;;;4963034;28;20105;-85
2023/05/13 05:06:35;;;;;;;7.43;6.38;;;14.40;99.90;;;;;;4977474;28;20074;-85
2023/05/13 05:09:01;;;;;;;8.43;7.05;;;14.90;99.90;;;;;;4968295;28;20041;-84
2023/05/13 05:11:26;;;;;;;12.55;6.30;;;15.40;99.90;;;;;;4985507;28;20411;-84
2023/05/13 05:13:52;;;;;;;6.60;5.90;;;15.90;99.90;;;;;;4982596;28;20042;-85
2023/05/13 05:16:17;;;;;;;9.95;6.10;;;16.70;99.90;;;;;;4968117;28;20050;-85
2023/05/13 05:18:43;;;;;;;8.88;5.25;;;17.60;99.90;;;;;;4965909;28;20710;-85
2023/05/13 05:21:09;;;;;;;6.40;5.30;;;18.50;99.90;;;;;;4968992;28;20080;-85
2023/05/13 05:23:35;;;;;;;9.15;5.72;;;19.60;99.90;;;;;;4954746;28;20093;-85
2023/05/13 05:26:01;;;;;;;6.45;4.72;;;20.40;99.90;;;;;;4966686;28;20525;-85
2023/05/13 05:28:26;;;;;;;8.15;4.88;;;21.50;99.90;;;;;;4967929;28;20070;-85
2023/05/13 05:30:52;;;;;;;10.57;5.32;;;22.30;99.90;;;;;;4985694;28;20131;-85
2023/05/13 05:33:18;;;;;;;6.80;4.85;;;23.10;99.90;;;;;;4966013;28;20398;-85
2023/05/13 05:35:44;;;;;;;6.13;4.78;;;23.70;99.90;;;;;;4965796;28;20057;-85
2023/05/13 05:38:11;;;;;;;6.72;4.55;;;24.30;99.90;;;;;;4960443;28;20042;-84
2023/05/13 05:40:40;;;;;;;9.90;4.63;;;24.60;99.90;;;;;;4967815;28;20043;-85
2023/05/13 05:43:07;;;;;;;8.70;5.00;;;25.10;99.50;;;;;;4967197;28;20382;-85
2023/05/13 05:45:36;;;;;;;8.77;4.95;;;25.60;99.30;;;;;;4967574;28;20081;-85
2023/05/13 05:48:02;;;;;;;8.57;4.50;;;25.20;98.70;;;;;;4962195;28;20044;-85
2023/05/13 05:50:28;;;;;;;6.70;5.15;;;25.40;99.10;;;;;;4958308;28;20047;-84
2023/05/13 05:52:54;;;;;;;5.97;4.47;;;25.30;98.30;;;;;;4961721;28;20061;-83
2023/05/13 05:55:20;;;;;;;8.25;4.72;;;25.60;98.00;;;;;;4966356;28;20082;-83
2023/05/13 05:57:45;;;;;;;6.35;4.20;;;25.00;97.60;;;;;;4958360;28;20498;-84
2023/05/13 06:00:12;;;;;;;9.50;5.05;;;24.10;98.10;;;;;;4961203;28;20043;-84
2023/05/13 06:02:38;;;;;;;6.35;4.85;;;23.60;98.70;;;;;;4973601;28;20734;-83
2023/05/13 06:05:04;;;;;;;6.30;4.25;;;22.90;99.00;;;;;;4962282;28;20607;-84
2023/05/13 06:07:30;;;;;;;8.90;5.03;;;22.40;99.50;;;;;;4978397;28;20043;-83
2023/05/13 06:09:56;;;;;;;6.18;4.07;;;21.70;99.90;;;;;;4960921;28;20050;-84
2023/05/13 06:12:36;;;;;;;5.80;4.60;;;20.80;99.90;;;;;;4961617;28;20044;-84
2023/05/13 06:15:05;;;;;;;7.82;5.20;;;20.20;99.90;;;;;;4962824;28;20054;-84
2023/05/13 06:17:30;;;;;;;6.93;4.70;;;19.90;99.90;;;;;;4963838;28;20074;-84
2023/05/13 06:19:57;;;;;;;8.20;5.57;;;19.40;99.90;;;;;;4966240;28;20074;-84
2023/05/13 06:22:23;;;;;;;8.45;5.20;;;18.90;99.90;;;;;;4966170;28;20425;-85
2023/05/13 06:24:48;;;;;;;7.28;5.20;;;19.00;99.90;;;;;;4965872;28;20030;-86
2023/05/13 06:27:14;;;;;;;9.27;4.85;;;19.00;99.90;;;;;;4963921;28;20125;-84
2023/05/13 06:29:39;;;;;;;6.07;4.35;;;18.90;99.90;;;;;;4953790;28;20094;-86
2023/05/13 06:32:05;;;;;;;9.18;5.15;;;19.20;99.90;;;;;;4967906;28;20061;-84
2023/05/13 06:34:31;;;;;;;7.88;4.78;;;19.10;99.90;;;;;;4959244;28;20073;-83
2023/05/13 06:36:56;;;;;;;8.20;4.47;;;19.20;99.90;;;;;;4963233;28;20074;-83
2023/05/13 06:39:22;;;;;;;6.95;4.28;;;19.30;99.90;;;;;;4965958;28;20071;-85
2023/05/13 06:41:48;;;;;;;7.95;4.45;;;19.50;99.90;;;;;;4980626;28;20109;-84
2023/05/13 06:44:13;;;;;;;8.75;4.20;;;19.50;99.90;;;;;;4963856;28;20050;-85
2023/05/13 06:46:39;;;;;;;7.78;4.63;;;19.10;99.90;;;;;;4960952;28;20049;-84
2023/05/13 06:49:05;;;;;;;7.32;4.78;;;19.30;99.90;;;;;;4963059;28;20047;-83
2023/05/13 06:51:32;;;;;;;7.95;4.60;;;19.00;99.90;;;;;;4960987;28;20130;-84
2023/05/13 06:53:58;;;;;;;10.40;4.57;;;19.00;99.90;;;;;;4961493;28;20473;-83
2023/05/13 06:56:24;;;;;;;10.38;4.40;;;19.20;99.90;;;;;;4968484;28;20042;-85
2023/05/13 06:58:51;;;;;;;7.18;4.65;;;19.30;99.90;;;;;;4971145;28;20086;-85
2023/05/13 07:01:17;;;;;;;5.50;4.68;;;19.70;99.90;;;;;;4968133;28;20042;-85
2023/05/13 07:03:43;;;;;;;9.30;4.53;;;19.40;99.90;;;;;;4979264;28;20319;-86
2023/05/13 07:06:09;;;;;;;7.65;4.93;;;19.30;99.90;;;;;;4951793;28;20879;-85
2023/05/13 07:08:34;;;;;;;8.57;4.75;;;19.50;99.90;;;;;;4954777;28;20174;-85
2023/05/13 07:11:00;;;;;;;8.63;5.30;;;19.90;99.90;;;;;;4970697;28;20496;-85
2023/05/13 07:13:25;;;;;;;5.95;4.55;;;19.60;99.90;;;;;;4966357;28;20039;-85
2023/05/13 07:15:51;;;;;;;7.20;4.45;;;19.60;99.90;;;;;;4955090;28;20093;-85
2023/05/13 07:18:17;;;;;;;5.35;4.78;;;19.70;99.90;;;;;;4965032;28;20498;-85
2023/05/13 07:20:42;;;;;;;8.73;4.85;;;19.60;99.90;;;;;;4966763;28;20039;-86
2023/05/13 07:23:08;;;;;;;5.30;4.45;;;19.50;99.90;;;;;;4966993;28;20039;-86
2023/05/13 07:25:34;;;;;;;10.65;6.00;;;19.70;99.90;;;;;;4969005;28;20041;-86
2023/05/13 07:27:59;;;;;;;6.70;4.32;;;19.70;99.90;;;;;;4984552;28;20042;-86
2023/05/13 07:30:25;;;;;;;8.15;5.13;;;19.90;99.90;;;;;;4967525;28;20038;-86
2023/05/13 07:32:50;;;;;;;7.90;4.78;;;20.00;99.90;;;;;;4952766;28;20134;-86
2023/05/13 07:35:16;;;;;;;8.05;4.80;;;19.90;99.90;;;;;;4968997;28;20049;-86
2023/05/13 07:37:43;;;;;;;7.32;4.75;;;20.00;99.90;;;;;;4967708;28;20047;-84
2023/05/13 07:40:09;;;;;;;8.15;4.43;;;20.10;99.90;;;;;;4968904;28;20141;-84
2023/05/13 07:42:36;;;;;;;7.63;4.40;;;20.20;99.90;;;;;;4969903;28;20100;-85
2023/05/13 07:45:06;;;;;;;5.80;4.07;;;20.50;99.90;;;;;;4967597;28;20986;-91
2023/05/13 07:47:32;;;;;;;8.98;4.05;;;20.70;99.90;;;;;;4969843;28;20055;-85
2023/05/13 07:49:57;;;;;;;7.57;4.80;;;20.70;99.90;;;;;;4966122;28;20647;-85
2023/05/13 07:52:23;;;;;;;6.28;4.28;;;20.80;99.90;;;;;;4975016;28;20039;-84
2023/05/13 07:54:49;;;;;;;5.30;3.95;;;20.80;99.90;;;;;;4963483;28;20043;-86
2023/05/13 07:57:15;;;;;;;5.38;4.28;;;20.80;99.90;;;;;;4965012;28;20648;-83
2023/05/13 07:59:40;;;;;;;6.82;4.32;;;20.80;99.90;;;;;;4963132;28;20642;-83
2023/05/13 08:02:06;;;;;;;5.55;3.90;;;20.50;99.90;;;;;;4967237;28;20084;-84
2023/05/13 08:04:32;;;;;;;4.95;3.40;;;20.60;99.90;;;;;;4967310;28;20062;-83
2023/05/13 08:07:00;;;;;;;7.60;4.07;;;20.70;99.90;;;;;;4965493;28;20663;-83
2023/05/13 08:09:25;;;;;;;10.32;3.72;;;20.80;99.90;;;;;;4972529;28;20042;-83
2023/05/13 08:11:51;;;;;;;6.55;3.47;;;21.00;99.90;;;;;;4969413;28;20116;-82
2023/05/13 08:14:17;;;;;;;7.75;3.28;;;21.10;99.90;;;;;;4965131;28;20042;-83
2023/05/13 08:16:42;;;;;;;6.07;3.40;;;20.80;99.90;;;;;;4964730;28;20564;-83
2023/05/13 08:19:08;;;;;;;5.88;3.22;;;20.80;99.90;;;;;;4965344;28;20493;-83
2023/05/13 08:21:34;;;;;;;4.63;3.47;;;21.10;99.90;;;;;;4967790;28;20075;-84
2023/05/13 08:24:00;;;;;;;6.60;3.42;;;21.20;99.90;;;;;;4965997;28;20050;-83
2023/05/13 08:26:25;;;;;;;9.05;2.78;;;21.50;99.90;;;;;;4968311;28;20940;-82
2023/05/13 08:28:51;;;;;;;10.90;3.42;;;21.70;99.90;;;;;;4970083;28;20211;-84
2023/05/13 08:31:16;;;;;;;5.47;3.20;;;21.50;99.90;;;;;;4963999;28;20137;-84
2023/05/13 08:33:44;;;;;;;4.32;3.20;;;21.60;99.90;;;;;;4965766;28;20055;-84
2023/05/13 08:36:10;;;;;;;8.52;3.20;;;21.70;99.90;;;;;;4965300;28;20050;-85
2023/05/13 08:38:36;;;;;;;6.53;2.72;;;21.50;99.90;;;;;;4964788;28;20045;-84
2023/05/13 08:41:05;;;;;;;9.57;2.38;;;21.20;99.90;;;;;;4966557;28;20045;-84
2023/05/13 08:43:32;;;;;;;5.45;3.20;;;21.40;99.90;;;;;;4967572;28;20101;-85
2023/05/13 08:46:02;;;;;;;4.85;2.30;;;21.50;99.90;;;;;;4964535;28;20097;-84
2023/05/13 08:48:30;;;;;;;4.90;2.50;;;21.50;99.90;;;;;;4967831;28;20061;-84
2023/05/13 08:50:56;;;;;;;5.63;2.25;;;21.60;99.90;;;;;;4979120;28;20126;-84
2023/05/13 08:53:25;;;;;;;7.40;2.55;;;21.40;99.90;;;;;;4963443;28;20038;-84
2023/05/13 08:55:51;;;;;;;3.22;2.08;;;21.30;99.90;;;;;;4965276;28;20094;-84
2023/05/13 08:58:16;;;;;;;8.48;3.00;;;21.40;99.90;;;;;;4963250;28;20035;-84
2023/05/13 09:00:52;;;;;;;2.90;1.60;;;21.70;99.90;;;;;;5082629;27;20456;-84
2023/05/13 09:03:19;;;;;;;7.45;2.22;;;21.80;99.90;;;;;;5063554;28;20380;-84
2023/05/13 09:05:45;;;;;;;5.40;2.03;;;22.00;99.90;;;;;;5058056;28;20045;-83
2023/05/13 09:08:11;;;;;;;3.47;2.53;;;22.10;99.90;;;;;;5063406;28;20057;-82
2023/05/13 09:10:37;;;;;;;6.55;2.67;;;22.10;99.90;;;;;;5063563;28;20045;-83
2023/05/13 09:13:03;;;;;;;5.57;3.00;;;22.20;99.50;;;;;;5061319;28;20044;-82
2023/05/13 09:15:29;;;;;;;5.60;2.22;;;21.80;99.90;;;;;;5057427;28;20052;-83
2023/05/13 09:18:03;;;;;;;8.10;2.55;;;21.80;99.80;;;;;;5057737;28;20037;-83
2023/05/13 09:20:29;;;;;;;4.60;2.58;;;22.00;99.90;;;;;;5060256;28;20044;-83
2023/05/13 09:23:11;;;;;;;4.85;2.58;;;22.00;99.90;;;;;;5063457;28;20068;-83
2023/05/13 09:25:38;;;;;;;4.95;2.13;;;22.30;99.90;;;;;;5060638;28;20059;-83
2023/05/13 09:28:05;;;;;;;6.30;2.22;;;22.40;99.80;;;;;;5056554;28;20119;-84
2023/05/13 09:30:37;;;;;;;5.57;2.25;;;22.50;99.90;;;;;;5062422;28;20048;-84
2023/05/13 09:33:06;;;;;;;7.90;2.97;;;22.20;99.50;;;;;;5058932;28;20068;-84
2023/05/13 09:35:33;;;;;;;5.88;2.42;;;22.30;99.70;;;;;;5059514;28;20098;-83
2023/05/13 09:37:58;;;;;;;11.43;2.55;;;22.50;99.90;;;;;;5059774;28;20545;-83
2023/05/13 09:40:24;;;;;;;6.38;2.75;;;22.40;99.90;;;;;;5065608;28;20040;-84
2023/05/13 09:42:50;;;;;;;6.90;2.42;;;22.50;99.90;;;;;;5063682;28;20051;-83
2023/05/13 09:45:16;;;;;;;4.57;2.25;;;22.40;98.80;;;;;;5059059;28;20778;-83
2023/05/13 09:47:42;;;;;;;4.75;2.40;;;22.40;99.80;;;;;;5061581;28;20495;-83
2023/05/13 09:50:10;;;;;;;3.72;2.08;;;22.60;99.90;;;;;;5055367;28;20052;-83
2023/05/13 09:52:37;;;;;;;4.25;1.80;;;22.70;99.10;;;;;;5062634;28;20526;-84
2023/05/13 09:55:07;;;;;;;8.00;2.10;;;23.10;99.00;;;;;;5051424;28;20057;-83
2023/05/13 09:57:33;;;;;;;7.15;2.28;;;22.50;97.60;;;;;;5064249;28;20414;-83
2023/05/13 10:00:00;;;;;;;5.65;1.70;;;22.50;98.60;;;;;;5059761;28;20041;-83
2023/05/13 10:02:27;;;;;;;8.07;2.05;;;22.50;98.50;;;;;;5060524;28;20037;-83
2023/05/13 10:04:54;;;;;;;5.88;2.00;;;22.50;98.50;;;;;;5057871;28;20036;-84
2023/05/13 10:07:24;;;;;;;6.22;2.00;;;22.70;99.10;;;;;;5059834;28;20075;-84
2023/05/13 10:09:57;;;;;;;9.15;1.40;;;22.80;98.50;;;;;;5065491;28;20086;-84
2023/05/13 10:12:24;;;;;;;6.75;1.70;;;23.20;98.00;;;;;;5049091;28;20059;-82
2023/05/13 10:14:51;;;;;;;3.03;1.63;;;22.80;96.70;;;;;;5041005;28;20036;-83
2023/05/13 10:17:22;;;;;;;2.83;1.55;;;22.90;98.10;;;;;;5048125;28;20049;-83
2023/05/13 10:19:52;;;;;;;4.95;2.17;;;22.90;97.10;;;;;;5050043;28;20049;-84
2023/05/13 10:22:37;;;;;;;4.97;1.70;;;22.80;96.90;;;;;;5046764;28;20041;-82
2023/05/13 10:25:04;;;;;;;5.00;1.60;;;22.80;96.50;;;;;;5043483;28;20132;-83
2023/05/13 10:27:31;;;;;;;3.38;1.50;;;22.80;96.80;;;;;;5047549;28;20088;-83
2023/05/13 10:29:59;;;;;;;7.65;1.70;;;22.90;96.90;;;;;;5045706;28;20045;-83
2023/05/13 10:32:27;;;;;;;7.75;1.85;;;22.90;97.50;;;;;;5047564;28;20075;-83
2023/05/13 10:35:16;;;;;;;5.47;1.50;;;22.90;97.60;;;;;;5045530;28;20136;-83
2023/05/13 10:38:02;;;;;;;6.07;2.05;;;22.90;97.20;;;;;;5048715;28;20067;-83
2023/05/13 10:41:00;;;;;;;7.88;1.85;;;22.60;96.00;;;;;;5047665;28;20054;-83
2023/05/13 10:43:30;;;;;;;4.93;2.00;;;22.70;97.30;;;;;;5046701;28;20041;-83
2023/05/13 10:46:05;;;;;;;7.90;2.08;;;22.70;96.50;;;;;;5047636;28;20043;-84
2023/05/13 10:48:39;;;;;;;6.72;2.67;;;22.60;96.40;;;;;;5054087;28;20514;-83
2023/05/13 10:51:06;;;;;;;4.45;1.70;;;22.70;97.40;;;;;;5044572;28;20383;-83
2023/05/13 10:53:43;;;;;;;7.32;2.55;;;22.80;97.40;;;;;;5047884;28;20132;-84
2023/05/13 10:56:09;;;;;;;3.20;1.88;;;22.70;97.30;;;;;;5049141;28;20036;-83
2023/05/13 10:58:38;;;;;;;4.45;2.05;;;22.70;96.80;;;;;;5041865;28;20048;-83
2023/05/13 11:01:17;;;;;;;8.77;2.10;;;22.80;97.30;;;;;;5043630;28;20476;-82
2023/05/13 11:03:59;;;;;;;4.47;2.08;;;22.90;97.40;;;;;;5042489;28;20091;-83
2023/05/13 11:06:35;;;;;;;5.05;2.10;;;23.00;95.20;;;;;;5044657;28;20041;-83
2023/05/13 11:09:05;;;;;;;3.97;1.40;;;22.90;97.00;;;;;;5041762;28;20045;-84
2023/05/13 11:11:33;;;;;;;6.68;2.05;;;23.00;97.00;;;;;;5046233;28;20132;-83
2023/05/13 11:13:58;;;;;;;7.03;1.95;;;22.80;96.30;;;;;;5045782;28;20503;-83
2023/05/13 11:16:24;;;;;;;5.75;1.55;;;22.70;96.30;;;;;;5042962;28;20068;-84
2023/05/13 11:18:51;;;;;;;6.22;1.70;;;22.70;97.10;;;;;;5047607;28;20033;-83
2023/05/13 11:21:28;;;;;;;4.35;1.92;;;22.70;95.70;;;;;;5044396;28;20073;-83
2023/05/13 11:23:56;;;;;;;6.55;1.73;;;22.60;93.90;;;;;;5059898;28;20076;-83
2023/05/13 11:26:22;;;;;;;7.25;1.67;;;22.50;95.30;;;;;;5047482;28;20045;-83
2023/05/13 11:29:07;;;;;;;5.05;1.50;;;22.50;95.60;;;;;;5048489;28;20106;-82
2023/05/13 11:31:48;;;;;;;10.10;2.07;;;22.80;96.80;;;;;;5045411;28;20368;-82
2023/05/13 11:34:18;;;;;;;9.70;2.33;;;22.90;96.30;;;;;;5043716;28;20310;-82
2023/05/13 11:36:55;;;;;;;13.25;1.90;;;22.80;94.70;;;;;;5044917;28;20049;-83
2023/05/13 11:39:22;;;;;;;6.30;1.58;;;22.80;95.10;;;;;;5048589;28;20095;-82
2023/05/13 11:41:51;;;;;;;13.57;2.00;;;22.70;95.40;;;;;;5052424;28;20064;-84
2023/05/13 11:44:19;;;;;;;3.13;1.40;;;22.70;96.20;;;;;;5045765;28;20044;-82
2023/05/13 11:47:04;;;;;;;7.70;1.65;;;22.90;96.40;;;;;;5046356;28;20055;-83
2023/05/13 11:49:36;;;;;;;6.32;1.73;;;23.00;93.80;;;;;;5048646;28;20045;-83
2023/05/13 11:52:04;;;;;;;8.07;1.67;;;22.80;91.10;;;;;;5048070;28;20048;-82
2023/05/13 11:54:29;;;;;;;2.50;1.73;;;22.90;94.50;;;;;;5047351;28;20056;-83
2023/05/13 11:56:55;;;;;;;5.72;1.42;;;22.90;94.00;;;;;;5046797;28;20042;-83
2023/05/13 11:59:21;;;;;;;3.88;1.35;;;23.20;94.00;;;;;;5044716;28;20088;-82
2023/05/13 12:01:59;;;;;;;4.40;1.30;;;23.00;92.90;;;;;;5048616;28;20037;-82
2023/05/13 12:04:31;;;;;;;10.68;1.83;;;22.70;91.80;;;;;;5045319;28;20090;-83
2023/05/13 12:06:57;;;;;;;8.65;1.80;;;22.50;91.30;;;;;;5048164;28;20045;-82
2023/05/13 12:09:23;;;;;;;4.45;1.50;;;22.40;92.20;;;;;;5045148;28;20140;-82
2023/05/13 12:11:51;;;;;;;3.30;1.73;;;22.50;93.30;;;;;;5046386;28;20075;-82
2023/05/13 12:14:18;;;;;;;5.68;1.58;;;22.50;92.90;;;;;;5046926;28;20037;-82
2023/05/13 12:16:44;;;;;;;7.95;1.65;;;22.60;93.70;;;;;;5047738;28;20045;-83
2023/05/13 12:19:10;;;;;;;5.97;1.88;;;22.80;94.90;;;;;;5043660;28;20041;-83
2023/05/13 12:21:37;;;;;;;7.40;1.80;;;22.90;94.20;;;;;;5044305;28;20045;-82
2023/05/13 12:24:19;;;;;;;6.22;1.52;;;23.10;94.90;;;;;;5045482;28;20043;-82
2023/05/13 12:26:45;;;;;;;3.35;1.52;;;23.10;95.20;;;;;;5052434;28;20037;-82
2023/05/13 12:29:10;;;;;;;11.98;1.60;;;23.00;94.10;;;;;;5045551;28;20194;-82
2023/05/13 12:31:36;;;;;;;3.88;2.10;;;23.10;94.20;;;;;;5053318;28;20065;-82
2023/05/13 12:34:02;;;;;;;4.40;1.55;;;22.90;94.10;;;;;;5050657;28;20041;-83
2023/05/13 12:36:34;;;;;;;5.90;1.88;;;23.10;93.30;;;;;;5039624;28;20483;-83
2023/05/13 12:39:01;;;;;;;6.95;1.48;;;23.10;92.80;;;;;;5040029;28;20049;-83
2023/05/13 12:41:29;;;;;;;5.82;2.25;;;23.00;95.20;;;;;;5043743;28;20148;-83
2023/05/13 12:44:00;;;;;;;6.82;2.55;;;22.80;93.70;;;;;;5046231;28;20048;-83
2023/05/13 12:46:26;;;;;;;4.03;1.75;;;22.90;94.40;;;;;;5045355;28;20094;-83